sensor_id;sensor_type;location;lat;lon;timestamp;temperature;humidity
46438;DHT22;32137;48.728;9.142;2023-05-07T00:00:21;16.00;43.10
46438;DHT22;32137;48.728;9.142;2023-05-07T00:02:46;15.90;68.40
46438;DHT22;32137;48.728;9.142;2023-05-07T00:05:12;15.90;69.30
46438;DHT22;32137;48.728;9.142;2023-05-07T00:07:38;15.90;82.90
46438;DHT22;32137;48.728;9.142;2023-05-07T00:10:04;15.90;76.20
46438;DHT22;32137;48.728;9.142;2023-05-07T00:12:31;15.90;84.60
46438;DHT22;32137;48.728;9.142;2023-05-07T00:14:59;15.80;82.50
46438;DHT22;32137;48.728;9.142;2023-05-07T00:17:24;15.80;72.90
46438;DHT22;32137;48.728;9.142;2023-05-07T00:19:50;15.70;92.10
46438;DHT22;32137;48.728;9.142;2023-05-07T00:22:15;15.70;79.80
46438;DHT22;32137;48.728;9.142;2023-05-07T00:24:41;15.70;88.60
46438;DHT22;32137;48.728;9.142;2023-05-07T00:27:07;15.70;99.90
46438;DHT22;32137;48.728;9.142;2023-05-07T00:29:32;15.70;99.90
46438;DHT22;32137;48.728;9.142;2023-05-07T00:31:58;15.60;99.90
46438;DHT22;32137;48.728;9.142;2023-05-07T00:34:23;15.70;99.90
46438;DHT22;32137;48.728;9.142;2023-05-07T00:36:49;15.60;99.90
46438;DHT22;32137;48.728;9.142;2023-05-07T00:39:15;15.60;99.90
46438;DHT22;32137;48.728;9.142;2023-05-07T00:41:40;15.60;99.90
46438;DHT22;32137;48.728;9.142;2023-05-07T00:44:06;15.50;99.90
46438;DHT22;32137;48.728;9.142;2023-05-07T00:46:32;15.50;99.90
46438;DHT22;32137;48.728;9.142;2023-05-07T00:48:59;15.50;99.90
46438;DHT22;32137;48.728;9.142;2023-05-07T00:51:25;15.50;99.90
46438;DHT22;32137;48.728;9.142;2023-05-07T00:53:53;15.50;99.90
46438;DHT22;32137;48.728;9.142;2023-05-07T00:56:20;15.50;99.90
46438;DHT22;32137;48.728;9.142;2023-05-07T00:58:46;15.50;99.90
46438;DHT22;32137;48.728;9.142;2023-05-07T01:01:12;15.40;99.90
46438;DHT22;32137;48.728;9.142;2023-05-07T01:03:38;15.40;99.90
46438;DHT22;32137;48.728;9.142;2023-05-07T01:06:05;15.40;99.90
46438;DHT22;32137;48.728;9.142;2023-05-07T01:08:32;15.40;99.90
46438;DHT22;32137;48.728;9.142;2023-05-07T01:10:58;15.40;99.90
46438;DHT22;32137;48.728;9.142;2023-05-07T01:13:25;15.30;99.90
46438;DHT22;32137;48.728;9.142;2023-05-07T01:15:50;15.30;99.90
46438;DHT22;32137;48.728;9.142;2023-05-07T01:18:16;15.30;99.90
46438;DHT22;32137;48.728;9.142;2023-05-07T01:20:42;15.30;99.90
46438;DHT22;32137;48.728;9.142;2023-05-07T01:23:08;15.30;99.90
46438;DHT22;32137;48.728;9.142;2023-05-07T01:25:36;15.20;99.90
46438;DHT22;32137;48.728;9.142;2023-05-07T01:28:01;15.20;99.90
46438;DHT22;32137;48.728;9.142;2023-05-07T01:30:27;15.20;99.90
46438;DHT22;32137;48.728;9.142;2023-05-07T01:33:09;15.20;99.90
46438;DHT22;32137;48.728;9.142;2023-05-07T01:35:38;15.20;99.90
46438;DHT22;32137;48.728;9.142;2023-05-07T01:38:04;15.20;99.90
46438;DHT22;32137;48.728;9.142;2023-05-07T01:40:31;15.10;99.90
46438;DHT22;32137;48.728;9.142;2023-05-07T01:42:57;15.10;99.90
46438;DHT22;32137;48.728;9.142;2023-05-07T01:45:23;15.10;99.90
46438;DHT22;32137;48.728;9.142;2023-05-07T01:47:49;15.10;99.90
46438;DHT22;32137;48.728;9.142;2023-05-07T01:50:17;15.10;99.90
46438;DHT22;32137;48.728;9.142;2023-05-07T01:52:43;15.00;99.90
46438;DHT22;32137;48.728;9.142;2023-05-07T01:55:09;15.10;99.90
46438;DHT22;32137;48.728;9.142;2023-05-07T01:57:35;15.00;99.90
46438;DHT22;32137;48.728;9.142;2023-05-07T02:00:01;15.00;99.90
46438;DHT22;32137;48.728;9.142;2023-05-07T02:02:31;15.00;99.90
46438;DHT22;32137;48.728;9.142;2023-05-07T02:04:57;15.00;99.90
46438;DHT22;32137;48.728;9.142;2023-05-07T02:07:22;15.00;99.90
46438;DHT22;32137;48.728;9.142;2023-05-07T02:09:48;15.00;99.90
46438;DHT22;32137;48.728;9.142;2023-05-07T02:12:13;15.00;99.90
46438;DHT22;32137;48.728;9.142;2023-05-07T02:14:39;14.90;99.90
46438;DHT22;32137;48.728;9.142;2023-05-07T02:17:04;15.00;99.90
46438;DHT22;32137;48.728;9.142;2023-05-07T02:19:30;14.90;99.90
46438;DHT22;32137;48.728;9.142;2023-05-07T02:21:55;14.90;99.90
46438;DHT22;32137;48.728;9.142;2023-05-07T02:24:21;14.90;99.90
46438;DHT22;32137;48.728;9.142;2023-05-07T02:26:46;14.90;99.90
46438;DHT22;32137;48.728;9.142;2023-05-07T02:29:12;14.80;99.90
46438;DHT22;32137;48.728;9.142;2023-05-07T02:31:37;14.70;99.90
46438;DHT22;32137;48.728;9.142;2023-05-07T02:34:03;14.80;99.90
46438;DHT22;32137;48.728;9.142;2023-05-07T02:36:29;14.70;99.90
46438;DHT22;32137;48.728;9.142;2023-05-07T02:38:54;14.70;99.90
46438;DHT22;32137;48.728;9.142;2023-05-07T02:41:20;14.70;99.90
46438;DHT22;32137;48.728;9.142;2023-05-07T02:43:46;14.60;99.90
46438;DHT22;32137;48.728;9.142;2023-05-07T02:46:12;14.60;99.90
46438;DHT22;32137;48.728;9.142;2023-05-07T02:48:37;14.60;99.90
46438;DHT22;32137;48.728;9.142;2023-05-07T02:51:03;14.50;99.90
46438;DHT22;32137;48.728;9.142;2023-05-07T02:53:29;14.50;99.90
46438;DHT22;32137;48.728;9.142;2023-05-07T02:55:59;14.50;99.90
46438;DHT22;32137;48.728;9.142;2023-05-07T02:58:24;14.50;99.90
46438;DHT22;32137;48.728;9.142;2023-05-07T03:00:50;14.50;99.90
46438;DHT22;32137;48.728;9.142;2023-05-07T03:03:16;14.60;99.90
46438;DHT22;32137;48.728;9.142;2023-05-07T03:05:42;14.60;99.90
46438;DHT22;32137;48.728;9.142;2023-05-07T03:08:08;14.50;99.90
46438;DHT22;32137;48.728;9.142;2023-05-07T03:10:34;14.50;99.90
46438;DHT22;32137;48.728;9.142;2023-05-07T03:13:00;14.40;99.90
46438;DHT22;32137;48.728;9.142;2023-05-07T03:15:26;14.40;99.90
46438;DHT22;32137;48.728;9.142;2023-05-07T03:17:51;14.30;99.90
46438;DHT22;32137;48.728;9.142;2023-05-07T03:20:17;14.30;99.90
46438;DHT22;32137;48.728;9.142;2023-05-07T03:22:42;14.30;99.90
46438;DHT22;32137;48.728;9.142;2023-05-07T03:25:08;14.30;99.90
46438;DHT22;32137;48.728;9.142;2023-05-07T03:27:34;14.20;99.90
46438;DHT22;32137;48.728;9.142;2023-05-07T03:30:00;14.20;99.90
46438;DHT22;32137;48.728;9.142;2023-05-07T03:32:26;14.20;99.90
46438;DHT22;32137;48.728;9.142;2023-05-07T03:34:52;14.20;99.90
46438;DHT22;32137;48.728;9.142;2023-05-07T03:37:17;14.20;99.90
46438;DHT22;32137;48.728;9.142;2023-05-07T03:39:43;14.10;99.90
46438;DHT22;32137;48.728;9.142;2023-05-07T03:42:09;14.00;99.90
46438;DHT22;32137;48.728;9.142;2023-05-07T03:44:34;13.90;99.90
46438;DHT22;32137;48.728;9.142;2023-05-07T03:47:01;13.90;99.90
46438;DHT22;32137;48.728;9.142;2023-05-07T03:49:27;13.90;99.90
46438;DHT22;32137;48.728;9.142;2023-05-07T03:51:53;13.80;99.90
46438;DHT22;32137;48.728;9.142;2023-05-07T03:54:18;13.80;99.90
46438;DHT22;32137;48.728;9.142;2023-05-07T03:56:44;13.70;99.90
46438;DHT22;32137;48.728;9.142;2023-05-07T03:59:09;13.70;99.90
46438;DHT22;32137;48.728;9.142;2023-05-07T04:01:35;13.70;99.90
46438;DHT22;32137;48.728;9.142;2023-05-07T04:04:01;13.70;99.90
46438;DHT22;32137;48.728;9.142;2023-05-07T04:06:26;13.60;99.90
46438;DHT22;32137;48.728;9.142;2023-05-07T04:08:52;13.60;99.90
46438;DHT22;32137;48.728;9.142;2023-05-07T04:11:18;13.70;99.90
46438;DHT22;32137;48.728;9.142;2023-05-07T04:13:43;13.60;99.90
46438;DHT22;32137;48.728;9.142;2023-05-07T04:16:09;13.70;99.90
46438;DHT22;32137;48.728;9.142;2023-05-07T04:18:35;13.60;99.90
46438;DHT22;32137;48.728;9.142;2023-05-07T04:21:00;13.60;99.90
46438;DHT22;32137;48.728;9.142;2023-05-07T04:23:26;13.60;99.90
46438;DHT22;32137;48.728;9.142;2023-05-07T04:25:51;13.60;99.90
46438;DHT22;32137;48.728;9.142;2023-05-07T04:28:17;13.60;99.90
46438;DHT22;32137;48.728;9.142;2023-05-07T04:30:43;13.70;99.90
46438;DHT22;32137;48.728;9.142;2023-05-07T04:33:08;13.60;99.90
46438;DHT22;32137;48.728;9.142;2023-05-07T04:35:35;13.60;99.90
46438;DHT22;32137;48.728;9.142;2023-05-07T04:38:00;13.60;99.90
46438;DHT22;32137;48.728;9.142;2023-05-07T04:40:26;13.50;99.90
46438;DHT22;32137;48.728;9.142;2023-05-07T04:42:52;13.50;99.90
46438;DHT22;32137;48.728;9.142;2023-05-07T04:45:18;13.50;99.90
46438;DHT22;32137;48.728;9.142;2023-05-07T04:47:44;13.50;99.90
46438;DHT22;32137;48.728;9.142;2023-05-07T04:50:10;13.50;99.90
46438;DHT22;32137;48.728;9.142;2023-05-07T04:52:36;13.50;99.90
46438;DHT22;32137;48.728;9.142;2023-05-07T04:55:01;13.50;99.90
46438;DHT22;32137;48.728;9.142;2023-05-07T04:57:27;13.50;99.90
46438;DHT22;32137;48.728;9.142;2023-05-07T04:59:53;13.50;99.90
46438;DHT22;32137;48.728;9.142;2023-05-07T05:02:19;13.50;99.90
46438;DHT22;32137;48.728;9.142;2023-05-07T05:04:44;13.50;99.90
46438;DHT22;32137;48.728;9.142;2023-05-07T05:07:10;13.50;99.90
46438;DHT22;32137;48.728;9.142;2023-05-07T05:09:35;13.60;99.90
46438;DHT22;32137;48.728;9.142;2023-05-07T05:12:01;13.60;99.90
46438;DHT22;32137;48.728;9.142;2023-05-07T05:14:26;13.60;99.90
46438;DHT22;32137;48.728;9.142;2023-05-07T05:16:52;13.60;99.90
46438;DHT22;32137;48.728;9.142;2023-05-07T05:19:18;13.60;99.90
46438;DHT22;32137;48.728;9.142;2023-05-07T05:21:43;13.60;99.90
46438;DHT22;32137;48.728;9.142;2023-05-07T05:24:09;13.70;99.90
46438;DHT22;32137;48.728;9.142;2023-05-07T05:26:35;13.70;99.90
46438;DHT22;32137;48.728;9.142;2023-05-07T05:29:00;13.70;99.90
46438;DHT22;32137;48.728;9.142;2023-05-07T05:31:26;13.70;99.90
46438;DHT22;32137;48.728;9.142;2023-05-07T05:33:51;13.80;99.90
46438;DHT22;32137;48.728;9.142;2023-05-07T05:36:17;13.80;99.90
46438;DHT22;32137;48.728;9.142;2023-05-07T05:38:43;13.80;99.90
46438;DHT22;32137;48.728;9.142;2023-05-07T05:41:09;13.80;99.90
46438;DHT22;32137;48.728;9.142;2023-05-07T05:43:35;13.90;99.90
46438;DHT22;32137;48.728;9.142;2023-05-07T05:46:01;14.00;99.90
46438;DHT22;32137;48.728;9.142;2023-05-07T05:48:26;14.00;99.90
46438;DHT22;32137;48.728;9.142;2023-05-07T05:50:52;14.00;99.90
46438;DHT22;32137;48.728;9.142;2023-05-07T05:53:18;14.00;99.90
46438;DHT22;32137;48.728;9.142;2023-05-07T05:55:43;14.10;99.90
46438;DHT22;32137;48.728;9.142;2023-05-07T05:58:09;14.10;99.90
46438;DHT22;32137;48.728;9.142;2023-05-07T06:00:35;14.20;99.90
46438;DHT22;32137;48.728;9.142;2023-05-07T06:03:00;14.20;99.90
46438;DHT22;32137;48.728;9.142;2023-05-07T06:05:26;14.30;99.90
46438;DHT22;32137;48.728;9.142;2023-05-07T06:07:51;14.30;99.90
46438;DHT22;32137;48.728;9.142;2023-05-07T06:10:17;14.30;99.90
46438;DHT22;32137;48.728;9.142;2023-05-07T06:12:43;14.40;99.90
46438;DHT22;32137;48.728;9.142;2023-05-07T06:15:09;14.40;99.90
46438;DHT22;32137;48.728;9.142;2023-05-07T06:17:34;14.50;99.90
46438;DHT22;32137;48.728;9.142;2023-05-07T06:20:00;14.60;99.90
46438;DHT22;32137;48.728;9.142;2023-05-07T06:22:25;14.60;99.90
46438;DHT22;32137;48.728;9.142;2023-05-07T06:24:51;14.70;99.90
46438;DHT22;32137;48.728;9.142;2023-05-07T06:27:16;14.90;99.90
46438;DHT22;32137;48.728;9.142;2023-05-07T06:29:42;14.90;99.90
46438;DHT22;32137;48.728;9.142;2023-05-07T06:32:08;14.90;99.90
46438;DHT22;32137;48.728;9.142;2023-05-07T06:34:34;14.90;99.90
46438;DHT22;32137;48.728;9.142;2023-05-07T06:37:00;14.90;99.90
46438;DHT22;32137;48.728;9.142;2023-05-07T06:39:25;14.80;99.90
46438;DHT22;32137;48.728;9.142;2023-05-07T06:41:51;14.80;99.90
46438;DHT22;32137;48.728;9.142;2023-05-07T06:44:17;14.80;99.90
46438;DHT22;32137;48.728;9.142;2023-05-07T06:46:42;14.70;99.90
46438;DHT22;32137;48.728;9.142;2023-05-07T06:49:08;14.70;99.90
46438;DHT22;32137;48.728;9.142;2023-05-07T06:51:33;14.70;99.90
46438;DHT22;32137;48.728;9.142;2023-05-07T06:53:59;14.80;99.90
46438;DHT22;32137;48.728;9.142;2023-05-07T06:56:24;14.80;99.90
46438;DHT22;32137;48.728;9.142;2023-05-07T06:58:50;14.80;99.90
46438;DHT22;32137;48.728;9.142;2023-05-07T07:01:16;14.90;99.90
46438;DHT22;32137;48.728;9.142;2023-05-07T07:03:41;14.90;99.90
46438;DHT22;32137;48.728;9.142;2023-05-07T07:06:07;14.90;99.90
46438;DHT22;32137;48.728;9.142;2023-05-07T07:08:32;15.00;99.90
46438;DHT22;32137;48.728;9.142;2023-05-07T07:10:58;15.00;99.90
46438;DHT22;32137;48.728;9.142;2023-05-07T07:13:24;15.00;99.90
46438;DHT22;32137;48.728;9.142;2023-05-07T07:15:49;15.10;99.90
46438;DHT22;32137;48.728;9.142;2023-05-07T07:18:15;15.20;99.90
46438;DHT22;32137;48.728;9.142;2023-05-07T07:20:40;15.20;99.90
46438;DHT22;32137;48.728;9.142;2023-05-07T07:23:06;15.40;99.90
46438;DHT22;32137;48.728;9.142;2023-05-07T07:25:32;15.50;99.90
46438;DHT22;32137;48.728;9.142;2023-05-07T07:27:57;15.50;99.90
46438;DHT22;32137;48.728;9.142;2023-05-07T07:30:23;15.70;99.90
46438;DHT22;32137;48.728;9.142;2023-05-07T07:32:48;15.80;99.90
46438;DHT22;32137;48.728;9.142;2023-05-07T07:35:14;15.90;99.90
46438;DHT22;32137;48.728;9.142;2023-05-07T07:37:40;16.00;99.90
46438;DHT22;32137;48.728;9.142;2023-05-07T07:40:06;16.10;99.90
46438;DHT22;32137;48.728;9.142;2023-05-07T07:42:31;16.20;99.90
46438;DHT22;32137;48.728;9.142;2023-05-07T07:44:57;16.40;99.90
46438;DHT22;32137;48.728;9.142;2023-05-07T07:47:23;16.40;99.90
46438;DHT22;32137;48.728;9.142;2023-05-07T07:49:48;16.60;99.90
46438;DHT22;32137;48.728;9.142;2023-05-07T07:52:14;16.60;99.90
46438;DHT22;32137;48.728;9.142;2023-05-07T07:54:39;16.70;99.90
46438;DHT22;32137;48.728;9.142;2023-05-07T07:57:05;16.90;99.90
46438;DHT22;32137;48.728;9.142;2023-05-07T07:59:30;16.90;99.90
46438;DHT22;32137;48.728;9.142;2023-05-07T08:01:56;16.90;98.00
46438;DHT22;32137;48.728;9.142;2023-05-07T08:04:22;16.90;99.90
46438;DHT22;32137;48.728;9.142;2023-05-07T08:06:48;17.00;99.90
46438;DHT22;32137;48.728;9.142;2023-05-07T08:09:13;17.10;99.90
46438;DHT22;32137;48.728;9.142;2023-05-07T08:11:39;17.00;99.90
46438;DHT22;32137;48.728;9.142;2023-05-07T08:14:05;17.10;99.90
46438;DHT22;32137;48.728;9.142;2023-05-07T08:16:31;17.20;99.90
46438;DHT22;32137;48.728;9.142;2023-05-07T08:18:56;17.30;99.90
46438;DHT22;32137;48.728;9.142;2023-05-07T08:21:23;17.30;62.10
46438;DHT22;32137;48.728;9.142;2023-05-07T08:23:49;17.40;98.60
46438;DHT22;32137;48.728;9.142;2023-05-07T08:26:14;17.40;87.40
46438;DHT22;32137;48.728;9.142;2023-05-07T08:28:40;17.70;41.50
46438;DHT22;32137;48.728;9.142;2023-05-07T08:31:06;17.80;28.80
46438;DHT22;32137;48.728;9.142;2023-05-07T08:33:31;17.90;29.20
46438;DHT22;32137;48.728;9.142;2023-05-07T08:35:57;17.90;19.20
46438;DHT22;32137;48.728;9.142;2023-05-07T08:38:22;17.90;6.20
46438;DHT22;32137;48.728;9.142;2023-05-07T08:40:48;18.00;13.10
46438;DHT22;32137;48.728;9.142;2023-05-07T08:43:14;18.10;1.00
46438;DHT22;32137;48.728;9.142;2023-05-07T08:45:40;18.10;1.00
46438;DHT22;32137;48.728;9.142;2023-05-07T08:48:15;18.10;1.00
46438;DHT22;32137;48.728;9.142;2023-05-07T08:50:40;18.10;4.10
46438;DHT22;32137;48.728;9.142;2023-05-07T08:53:06;18.20;1.00
46438;DHT22;32137;48.728;9.142;2023-05-07T08:55:32;18.20;1.00
46438;DHT22;32137;48.728;9.142;2023-05-07T08:57:58;18.20;1.00
46438;DHT22;32137;48.728;9.142;2023-05-07T09:00:24;18.20;1.00
46438;DHT22;32137;48.728;9.142;2023-05-07T09:02:50;18.30;1.00
46438;DHT22;32137;48.728;9.142;2023-05-07T09:05:16;18.40;1.00
46438;DHT22;32137;48.728;9.142;2023-05-07T09:07:41;18.40;1.00
46438;DHT22;32137;48.728;9.142;2023-05-07T09:10:07;18.40;1.00
46438;DHT22;32137;48.728;9.142;2023-05-07T09:12:33;18.40;1.00
46438;DHT22;32137;48.728;9.142;2023-05-07T09:15:00;18.40;1.00
46438;DHT22;32137;48.728;9.142;2023-05-07T09:17:26;18.40;1.00
46438;DHT22;32137;48.728;9.142;2023-05-07T09:19:52;18.50;1.00
46438;DHT22;32137;48.728;9.142;2023-05-07T09:22:19;18.50;1.00
46438;DHT22;32137;48.728;9.142;2023-05-07T09:24:51;18.50;1.00
46438;DHT22;32137;48.728;9.142;2023-05-07T09:27:17;18.60;1.00
46438;DHT22;32137;48.728;9.142;2023-05-07T09:29:43;18.50;1.00
46438;DHT22;32137;48.728;9.142;2023-05-07T09:32:09;18.60;1.00
46438;DHT22;32137;48.728;9.142;2023-05-07T09:34:35;18.70;1.00
46438;DHT22;32137;48.728;9.142;2023-05-07T09:37:06;18.70;1.00
46438;DHT22;32137;48.728;9.142;2023-05-07T09:39:41;18.70;1.00
46438;DHT22;32137;48.728;9.142;2023-05-07T09:42:07;18.90;99.90
46438;DHT22;32137;48.728;9.142;2023-05-07T09:44:34;19.00;1.00
46438;DHT22;32137;48.728;9.142;2023-05-07T09:47:00;19.10;99.90
46438;DHT22;32137;48.728;9.142;2023-05-07T09:49:29;19.10;99.90
46438;DHT22;32137;48.728;9.142;2023-05-07T09:51:55;19.20;99.90
46438;DHT22;32137;48.728;9.142;2023-05-07T09:54:22;19.20;99.90
46438;DHT22;32137;48.728;9.142;2023-05-07T09:56:52;19.20;99.90
46438;DHT22;32137;48.728;9.142;2023-05-07T09:59:18;19.20;1.00
46438;DHT22;32137;48.728;9.142;2023-05-07T10:01:45;19.30;1.00
46438;DHT22;32137;48.728;9.142;2023-05-07T10:04:11;19.60;99.90
46438;DHT22;32137;48.728;9.142;2023-05-07T10:06:38;19.70;99.90
46438;DHT22;32137;48.728;9.142;2023-05-07T10:09:04;19.90;99.90
46438;DHT22;32137;48.728;9.142;2023-05-07T10:11:34;19.90;99.90
46438;DHT22;32137;48.728;9.142;2023-05-07T10:14:01;20.00;99.90
46438;DHT22;32137;48.728;9.142;2023-05-07T10:16:32;20.10;99.90
46438;DHT22;32137;48.728;9.142;2023-05-07T10:18:58;20.20;99.90
46438;DHT22;32137;48.728;9.142;2023-05-07T10:21:26;20.20;99.90
46438;DHT22;32137;48.728;9.142;2023-05-07T10:26:32;20.30;99.90
46438;DHT22;32137;48.728;9.142;2023-05-07T10:29:21;20.50;99.90
46438;DHT22;32137;48.728;9.142;2023-05-07T10:34:41;20.70;99.90
46438;DHT22;32137;48.728;9.142;2023-05-07T10:37:09;20.80;99.90
46438;DHT22;32137;48.728;9.142;2023-05-07T10:39:35;20.90;99.90
46438;DHT22;32137;48.728;9.142;2023-05-07T10:42:08;21.10;99.90
46438;DHT22;32137;48.728;9.142;2023-05-07T10:44:34;21.20;99.90
46438;DHT22;32137;48.728;9.142;2023-05-07T10:47:08;21.30;99.90
46438;DHT22;32137;48.728;9.142;2023-05-07T10:50:20;21.40;99.90
46438;DHT22;32137;48.728;9.142;2023-05-07T10:52:22;21.40;99.90
46438;DHT22;32137;48.728;9.142;2023-05-07T10:57:46;21.60;99.90
46438;DHT22;32137;48.728;9.142;2023-05-07T11:05:25;21.90;99.90
46438;DHT22;32137;48.728;9.142;2023-05-07T11:08:01;22.10;99.90
46438;DHT22;32137;48.728;9.142;2023-05-07T11:10:53;22.30;68.40
46438;DHT22;32137;48.728;9.142;2023-05-07T11:13:46;22.50;52.70
46438;DHT22;32137;48.728;9.142;2023-05-07T11:16:25;22.70;21.70
46438;DHT22;32137;48.728;9.142;2023-05-07T11:18:54;23.00;7.40
46438;DHT22;32137;48.728;9.142;2023-05-07T11:21:35;23.20;1.00
46438;DHT22;32137;48.728;9.142;2023-05-07T11:24:01;23.50;1.00
46438;DHT22;32137;48.728;9.142;2023-05-07T11:26:40;23.60;1.00
46438;DHT22;32137;48.728;9.142;2023-05-07T11:29:11;23.70;1.00
46438;DHT22;32137;48.728;9.142;2023-05-07T11:31:37;23.60;1.00
46438;DHT22;32137;48.728;9.142;2023-05-07T11:34:02;23.50;1.00
46438;DHT22;32137;48.728;9.142;2023-05-07T11:36:32;23.40;1.00
46438;DHT22;32137;48.728;9.142;2023-05-07T11:38:58;23.30;1.00
46438;DHT22;32137;48.728;9.142;2023-05-07T11:41:36;23.40;1.00
46438;DHT22;32137;48.728;9.142;2023-05-07T11:44:02;23.70;1.00
46438;DHT22;32137;48.728;9.142;2023-05-07T11:46:28;23.90;1.00
46438;DHT22;32137;48.728;9.142;2023-05-07T11:48:55;23.80;1.00
46438;DHT22;32137;48.728;9.142;2023-05-07T11:51:24;23.60;1.00
46438;DHT22;32137;48.728;9.142;2023-05-07T11:53:51;23.40;1.00
46438;DHT22;32137;48.728;9.142;2023-05-07T11:56:18;23.10;1.00
46438;DHT22;32137;48.728;9.142;2023-05-07T11:58:45;22.90;1.00
46438;DHT22;32137;48.728;9.142;2023-05-07T12:01:12;22.60;1.00
46438;DHT22;32137;48.728;9.142;2023-05-07T12:03:42;22.40;1.00
46438;DHT22;32137;48.728;9.142;2023-05-07T12:06:09;22.10;1.00
46438;DHT22;32137;48.728;9.142;2023-05-07T12:08:40;21.90;27.40
46438;DHT22;32137;48.728;9.142;2023-05-07T12:11:12;21.60;99.90
46438;DHT22;32137;48.728;9.142;2023-05-07T12:13:38;21.30;99.90
46438;DHT22;32137;48.728;9.142;2023-05-07T12:16:04;21.00;99.90
46438;DHT22;32137;48.728;9.142;2023-05-07T12:18:30;20.80;99.90
46438;DHT22;32137;48.728;9.142;2023-05-07T12:20:56;20.50;99.90
46438;DHT22;32137;48.728;9.142;2023-05-07T12:23:22;20.30;99.90
46438;DHT22;32137;48.728;9.142;2023-05-07T12:25:48;20.10;99.90
46438;DHT22;32137;48.728;9.142;2023-05-07T12:28:18;19.90;99.90
46438;DHT22;32137;48.728;9.142;2023-05-07T12:30:46;19.80;99.90
46438;DHT22;32137;48.728;9.142;2023-05-07T12:33:12;19.60;99.90
46438;DHT22;32137;48.728;9.142;2023-05-07T12:35:40;19.60;99.90
46438;DHT22;32137;48.728;9.142;2023-05-07T12:38:11;19.40;99.90
46438;DHT22;32137;48.728;9.142;2023-05-07T12:40:53;19.20;1.00
46438;DHT22;32137;48.728;9.142;2023-05-07T12:43:25;19.00;30.70
46438;DHT22;32137;48.728;9.142;2023-05-07T12:45:53;18.80;99.90
46438;DHT22;32137;48.728;9.142;2023-05-07T12:48:20;18.60;1.00
46438;DHT22;32137;48.728;9.142;2023-05-07T12:50:49;18.50;1.00
46438;DHT22;32137;48.728;9.142;2023-05-07T12:53:15;18.40;1.00
46438;DHT22;32137;48.728;9.142;2023-05-07T12:55:45;18.30;1.00
46438;DHT22;32137;48.728;9.142;2023-05-07T12:58:20;18.20;1.00
46438;DHT22;32137;48.728;9.142;2023-05-07T13:00:49;18.00;1.00
46438;DHT22;32137;48.728;9.142;2023-05-07T13:05:49;17.80;34.30
46438;DHT22;32137;48.728;9.142;2023-05-07T13:08:30;17.40;1.00
46438;DHT22;32137;48.728;9.142;2023-05-07T13:11:00;16.80;1.00
46438;DHT22;32137;48.728;9.142;2023-05-07T13:13:33;16.60;99.90
46438;DHT22;32137;48.728;9.142;2023-05-07T13:15:59;16.50;99.90
46438;DHT22;32137;48.728;9.142;2023-05-07T13:18:25;16.40;99.90
46438;DHT22;32137;48.728;9.142;2023-05-07T13:20:52;16.30;99.90
46438;DHT22;32137;48.728;9.142;2023-05-07T13:23:18;16.20;1.00
46438;DHT22;32137;48.728;9.142;2023-05-07T13:25:43;16.20;1.00
46438;DHT22;32137;48.728;9.142;2023-05-07T13:28:09;16.20;1.00
46438;DHT22;32137;48.728;9.142;2023-05-07T13:30:35;16.20;99.90
46438;DHT22;32137;48.728;9.142;2023-05-07T13:33:00;16.30;1.00
46438;DHT22;32137;48.728;9.142;2023-05-07T13:35:27;16.30;99.90
46438;DHT22;32137;48.728;9.142;2023-05-07T13:37:54;16.30;99.90
46438;DHT22;32137;48.728;9.142;2023-05-07T13:40:21;16.30;99.90
46438;DHT22;32137;48.728;9.142;2023-05-07T13:42:48;16.40;99.90
46438;DHT22;32137;48.728;9.142;2023-05-07T13:45:18;16.30;99.90
46438;DHT22;32137;48.728;9.142;2023-05-07T13:47:46;16.30;99.90
46438;DHT22;32137;48.728;9.142;2023-05-07T13:50:12;16.30;99.90
46438;DHT22;32137;48.728;9.142;2023-05-07T13:52:42;16.30;99.90
46438;DHT22;32137;48.728;9.142;2023-05-07T13:55:09;15.90;99.90
46438;DHT22;32137;48.728;9.142;2023-05-07T13:57:36;15.40;99.90
46438;DHT22;32137;48.728;9.142;2023-05-07T14:00:03;15.10;99.90
46438;DHT22;32137;48.728;9.142;2023-05-07T14:02:30;15.10;99.90
46438;DHT22;32137;48.728;9.142;2023-05-07T14:04:56;15.20;99.90
46438;DHT22;32137;48.728;9.142;2023-05-07T14:07:21;15.90;99.90
46438;DHT22;32137;48.728;9.142;2023-05-07T14:09:47;16.00;99.90
46438;DHT22;32137;48.728;9.142;2023-05-07T14:12:12;15.30;99.90
46438;DHT22;32137;48.728;9.142;2023-05-07T14:14:38;16.30;99.90
46438;DHT22;32137;48.728;9.142;2023-05-07T14:17:04;16.20;99.90
46438;DHT22;32137;48.728;9.142;2023-05-07T14:19:29;16.70;99.90
46438;DHT22;32137;48.728;9.142;2023-05-07T14:21:55;16.70;99.90
46438;DHT22;32137;48.728;9.142;2023-05-07T14:24:20;16.50;99.90
46438;DHT22;32137;48.728;9.142;2023-05-07T14:26:46;16.40;99.90
46438;DHT22;32137;48.728;9.142;2023-05-07T14:29:12;16.60;99.90
46438;DHT22;32137;48.728;9.142;2023-05-07T14:31:37;16.10;99.90
46438;DHT22;32137;48.728;9.142;2023-05-07T14:34:03;16.60;99.90
46438;DHT22;32137;48.728;9.142;2023-05-07T14:36:29;16.70;99.90
46438;DHT22;32137;48.728;9.142;2023-05-07T14:38:57;15.80;99.90
46438;DHT22;32137;48.728;9.142;2023-05-07T14:41:24;16.50;99.90
46438;DHT22;32137;48.728;9.142;2023-05-07T14:43:50;16.20;99.90
46438;DHT22;32137;48.728;9.142;2023-05-07T14:46:17;16.30;99.90
46438;DHT22;32137;48.728;9.142;2023-05-07T14:48:44;15.90;99.90
46438;DHT22;32137;48.728;9.142;2023-05-07T14:51:10;15.90;99.90
46438;DHT22;32137;48.728;9.142;2023-05-07T14:53:36;16.20;99.90
46438;DHT22;32137;48.728;9.142;2023-05-07T14:56:02;16.50;99.90
46438;DHT22;32137;48.728;9.142;2023-05-07T14:58:28;15.80;99.90
46438;DHT22;32137;48.728;9.142;2023-05-07T15:00:54;15.90;99.90
46438;DHT22;32137;48.728;9.142;2023-05-07T15:03:20;16.30;99.90
46438;DHT22;32137;48.728;9.142;2023-05-07T15:05:47;16.30;99.90
46438;DHT22;32137;48.728;9.142;2023-05-07T15:08:12;16.10;99.90
46438;DHT22;32137;48.728;9.142;2023-05-07T15:10:38;16.50;99.90
46438;DHT22;32137;48.728;9.142;2023-05-07T15:13:07;16.80;99.90
46438;DHT22;32137;48.728;9.142;2023-05-07T15:15:33;16.40;99.90
46438;DHT22;32137;48.728;9.142;2023-05-07T15:17:58;16.30;99.90
46438;DHT22;32137;48.728;9.142;2023-05-07T15:20:25;16.40;99.90
46438;DHT22;32137;48.728;9.142;2023-05-07T15:22:51;16.90;99.90
46438;DHT22;32137;48.728;9.142;2023-05-07T15:25:16;16.30;99.90
46438;DHT22;32137;48.728;9.142;2023-05-07T15:27:42;16.30;99.90
46438;DHT22;32137;48.728;9.142;2023-05-07T15:30:08;17.20;99.90
46438;DHT22;32137;48.728;9.142;2023-05-07T15:32:35;16.60;99.90
46438;DHT22;32137;48.728;9.142;2023-05-07T15:35:03;16.50;99.90
46438;DHT22;32137;48.728;9.142;2023-05-07T15:37:30;17.20;99.90
46438;DHT22;32137;48.728;9.142;2023-05-07T15:39:56;16.50;99.90
46438;DHT22;32137;48.728;9.142;2023-05-07T15:42:22;17.40;99.90
46438;DHT22;32137;48.728;9.142;2023-05-07T15:44:47;17.10;99.90